Time;durP1;ratioP1;P1;durP2;ratioP2;P2;SDS_P1;SDS_P2;PMS_P1;PMS_P2;Temp;Humidity;BMP_temperature;BMP_pressure;BME280_temperature;BME280_humidity;BME280_pressure;Samples;Min_cycle;Max_cycle;Signal;HPM_P1;HPM_P2
2021/12/10 00:00:56;;;;;;;1.63;1.63;;;;;;;8.44;100.00;94593.06;5093530;28;20424;-52
2021/12/10 00:03:29;;;;;;;1.13;1.03;;;;;;;7.72;100.00;94477.56;5093097;28;20515;-52
2021/12/10 00:06:06;;;;;;;0.93;0.93;;;;;;;8.57;100.00;94609.09;5093299;28;20515;-52
2021/12/10 00:08:37;;;;;;;1.20;1.20;;;;;;;8.76;100.00;94582.81;5093480;28;20997;-52
2021/12/10 00:11:11;;;;;;;0.80;0.80;;;;;;;8.62;100.00;94590.59;5093051;28;20432;-52
2021/12/10 00:13:43;;;;;;;0.83;0.50;;;;;;;8.10;100.00;94534.88;5093378;28;20424;-52
2021/12/10 00:16:12;;;;;;;0.40;0.30;;;;;;;8.75;100.00;94597.88;5093213;28;20424;-52
2021/12/10 00:18:47;;;;;;;0.40;0.40;;;;;;;8.74;100.00;94593.66;5092614;28;20444;-52
2021/12/10 00:21:18;;;;;;;0.90;0.90;;;;;;;8.90;100.00;94597.00;5092632;28;20516;-52
2021/12/10 00:23:50;;;;;;;0.40;0.40;;;;;;;8.71;100.00;94610.06;5092697;28;20803;-52
2021/12/10 00:26:20;;;;;;;0.60;0.60;;;;;;;8.93;100.00;94597.22;5091965;28;20559;-52
2021/12/10 00:28:50;;;;;;;0.60;0.60;;;;;;;9.20;100.00;94590.66;5092915;28;20449;-52
2021/12/10 00:31:32;;;;;;;0.50;0.50;;;;;;;9.21;100.00;94577.16;5092727;28;21018;-52
2021/12/10 00:34:06;;;;;;;0.90;0.90;;;;;;;9.28;100.00;94585.59;5092674;28;20440;-52
2021/12/10 00:36:38;;;;;;;0.40;0.37;;;;;;;9.35;100.00;94593.97;5093318;28;20511;-53
2021/12/10 00:39:07;;;;;;;1.13;1.13;;;;;;;9.37;100.00;94577.81;5093187;28;20452;-52
2021/12/10 00:41:36;;;;;;;0.40;0.40;;;;;;;9.10;100.00;94566.97;5091591;28;20499;-52
2021/12/10 00:44:05;;;;;;;0.40;0.30;;;;;;;9.26;100.00;94573.72;5093135;28;20481;-52
2021/12/10 00:46:34;;;;;;;0.67;0.67;;;;;;;9.33;100.00;94567.03;5092726;28;20515;-52
2021/12/10 00:49:03;;;;;;;0.90;0.40;;;;;;;9.49;100.00;94557.06;5093100;28;20460;-52
2021/12/10 00:51:32;;;;;;;7.13;0.93;;;;;;;9.51;100.00;94550.44;5092934;28;20463;-52
2021/12/10 00:54:02;;;;;;;1.17;1.17;;;;;;;9.12;100.00;94565.63;5092599;28;21023;-52
2021/12/10 00:56:30;;;;;;;0.63;0.63;;;;;;;9.35;100.00;94569.38;5092635;28;20464;-52
2021/12/10 00:58:59;;;;;;;0.40;0.37;;;;;;;9.43;100.00;94568.78;5092252;28;20467;-52
2021/12/10 01:01:30;;;;;;;0.30;0.20;;;;;;;9.68;100.00;94560.56;5092228;28;20861;-52
2021/12/10 01:04:02;;;;;;;4.73;1.40;;;;;;;9.32;100.00;94557.50;5092123;28;20427;-52
2021/12/10 01:06:31;;;;;;;0.50;0.50;;;;;;;9.37;100.00;94554.03;5092438;28;20516;-52
2021/12/10 01:09:06;;;;;;;0.40;0.20;;;;;;;9.44;100.00;94542.03;5092363;28;20487;-52
2021/12/10 01:11:38;;;;;;;0.67;0.67;;;;;;;9.54;100.00;94541.94;5091773;28;20428;-52
2021/12/10 01:14:16;;;;;;;0.30;0.20;;;;;;;9.32;100.00;94495.91;5091759;28;20512;-52
2021/12/10 01:25:23;;;;;;;0.53;0.53;;;;;;;9.44;100.00;94520.88;5092244;28;20523;-52
2021/12/10 01:27:51;;;;;;;0.67;0.67;;;;;;;9.68;100.00;94512.97;5091926;28;20575;-53
2021/12/10 01:30:22;;;;;;;0.67;0.67;;;;;;;9.76;100.00;94488.53;5092003;28;20416;-53
2021/12/10 01:32:55;;;;;;;0.80;0.80;;;;;;;9.91;100.00;94493.63;5090852;28;20479;-51
2021/12/10 01:35:27;;;;;;;0.40;0.30;;;;;;;9.72;100.00;94486.69;5091789;28;20835;-51
2021/12/10 01:37:56;;;;;;;0.57;0.47;;;;;;;9.72;100.00;94508.66;5091913;28;20978;-51
2021/12/10 01:40:27;;;;;;;1.43;1.13;;;;;;;9.92;100.00;94502.31;5091049;28;20586;-51
2021/12/10 01:43:06;;;;;;;0.80;0.80;;;;;;;10.02;100.00;94499.53;5091755;28;20478;-51
2021/12/10 01:45:44;;;;;;;0.40;0.30;;;;;;;10.00;100.00;94497.19;5091109;28;20998;-51
2021/12/10 01:48:17;;;;;;;1.13;1.13;;;;;;;10.11;100.00;94481.97;5091923;28;20459;-51
2021/12/10 01:50:46;;;;;;;0.57;0.57;;;;;;;10.16;100.00;94477.44;5091494;28;20499;-51
2021/12/10 01:53:18;;;;;;;1.50;1.50;;;;;;;10.29;100.00;94475.91;5091343;28;20743;-51
2021/12/10 01:55:50;;;;;;;0.30;0.20;;;;;;;10.13;100.00;94459.47;5091701;28;20507;-51
2021/12/10 01:58:22;;;;;;;0.70;0.70;;;;;;;9.92;100.00;94405.19;5091590;28;20493;-51
2021/12/10 02:00:56;;;;;;;0.30;0.20;;;;;;;10.46;100.00;94446.25;5091354;28;20460;-51
2021/12/10 02:03:25;;;;;;;0.40;0.37;;;;;;;10.24;100.00;94446.06;5091468;28;20467;-51
2021/12/10 02:05:54;;;;;;;0.40;0.30;;;;;;;10.07;100.00;94439.38;5091068;28;20974;-51
2021/12/10 02:08:22;;;;;;;0.40;0.40;;;;;;;10.34;100.00;94443.25;5091450;28;20464;-51
2021/12/10 02:10:52;;;;;;;0.40;0.40;;;;;;;10.42;100.00;94435.47;5091502;28;20511;-51
2021/12/10 02:13:21;;;;;;;0.30;0.23;;;;;;;10.54;100.00;94440.28;5091464;28;20466;-52
2021/12/10 02:15:49;;;;;;;0.67;0.60;;;;;;;10.53;100.00;94428.13;5091495;28;20456;-51
2021/12/10 02:18:20;;;;;;;0.30;0.30;;;;;;;10.46;100.00;94423.19;5091484;28;20432;-51
2021/12/10 02:20:55;;;;;;;0.30;0.30;;;;;;;10.48;100.00;94423.69;5091497;28;20428;-51
2021/12/10 02:23:24;;;;;;;0.30;0.20;;;;;;;10.53;100.00;94414.88;5091501;28;20459;-51
2021/12/10 02:25:53;;;;;;;0.30;0.20;;;;;;;10.49;100.00;94408.59;5091773;28;20838;-50
2021/12/10 02:28:22;;;;;;;0.30;0.20;;;;;;;10.50;100.00;94384.44;5091297;28;20571;-51
2021/12/10 02:30:50;;;;;;;0.30;0.20;;;;;;;10.45;100.00;94405.72;5090741;28;20984;-51
2021/12/10 02:33:19;;;;;;;0.57;0.40;;;;;;;10.57;100.00;94405.28;5091036;28;20464;-51
2021/12/10 02:35:48;;;;;;;0.57;0.57;;;;;;;9.98;100.00;94414.63;5090694;28;20519;-51
2021/12/10 02:38:19;;;;;;;0.93;0.87;;;;;;;10.00;100.00;94383.38;5091680;28;20460;-51
2021/12/10 02:40:50;;;;;;;1.83;1.53;;;;;;;10.30;100.00;94405.97;5091188;28;20507;-51
2021/12/10 02:43:21;;;;;;;0.30;0.20;;;;;;;10.25;100.00;94405.25;5090773;28;20466;-51
2021/12/10 02:45:54;;;;;;;0.70;0.70;;;;;;;10.32;100.00;94413.63;5090085;28;20971;-51
2021/12/10 02:48:23;;;;;;;0.30;0.20;;;;;;;10.30;100.00;94407.81;5092724;28;20475;-51
2021/12/10 02:50:53;;;;;;;0.30;0.20;;;;;;;10.25;100.00;94413.19;5094027;28;20456;-50
2021/12/10 02:53:27;;;;;;;0.30;0.20;;;;;;;10.38;100.00;94413.25;5093954;28;20472;-51
2021/12/10 02:55:57;;;;;;;0.30;0.30;;;;;;;10.49;100.00;94398.00;5094938;28;20899;-51
2021/12/10 02:58:26;;;;;;;0.30;0.20;;;;;;;10.52;100.00;94408.81;5094377;28;20497;-51
2021/12/10 03:00:59;;;;;;;0.40;0.30;;;;;;;10.29;100.00;94398.31;5094700;28;20456;-51
2021/12/10 03:03:27;;;;;;;0.30;0.20;;;;;;;10.22;100.00;94408.50;5094804;28;20455;-51
2021/12/10 03:05:56;;;;;;;0.67;0.40;;;;;;;9.75;100.00;94341.41;5094432;28;20464;-51
2021/12/10 03:08:26;;;;;;;1.17;1.17;;;;;;;10.12;100.00;94404.91;5094187;28;20507;-51
2021/12/10 03:10:54;;;;;;;0.30;0.20;;;;;;;10.33;100.00;94415.19;5093534;28;20437;-52
2021/12/10 03:13:23;;;;;;;0.30;0.20;;;;;;;10.35;100.00;94421.78;5094553;28;20421;-51
2021/12/10 03:15:52;;;;;;;0.50;0.30;;;;;;;10.39;100.00;94400.81;5094593;28;20436;-52
2021/12/10 03:18:21;;;;;;;0.30;0.20;;;;;;;10.04;100.00;94396.81;5094698;28;20440;-52
2021/12/10 03:20:50;;;;;;;0.50;0.40;;;;;;;10.01;100.00;94392.91;5094321;28;20515;-51
2021/12/10 03:23:18;;;;;;;0.40;0.40;;;;;;;9.73;100.00;94338.28;5094387;28;20512;-52
2021/12/10 03:25:48;;;;;;;0.30;0.30;;;;;;;10.12;100.00;94375.00;5094584;28;20515;-52
2021/12/10 03:28:17;;;;;;;0.30;0.20;;;;;;;9.91;100.00;94363.94;5094169;28;20519;-52
2021/12/10 03:30:50;;;;;;;0.73;0.73;;;;;;;9.57;100.00;94361.50;5093795;28;20515;-52
2021/12/10 03:33:18;;;;;;;1.27;1.23;;;;;;;9.60;100.00;94341.63;5094375;28;20497;-52
2021/12/10 03:35:50;;;;;;;0.30;0.20;;;;;;;9.86;100.00;94336.75;5093318;28;20470;-52
2021/12/10 03:38:20;;;;;;;0.30;0.20;;;;;;;10.09;100.00;94335.88;5093209;28;20876;-52
2021/12/10 03:40:50;;;;;;;0.40;0.30;;;;;;;10.16;100.00;94320.41;5093541;28;20556;-52
2021/12/10 03:43:20;;;;;;;0.30;0.30;;;;;;;9.95;100.00;94335.00;5093222;28;20432;-52
2021/12/10 03:45:56;;;;;;;0.73;0.43;;;;;;;10.04;100.00;94347.28;5093034;28;20424;-52
2021/12/10 03:48:28;;;;;;;0.40;0.30;;;;;;;10.18;100.00;94363.28;5092839;28;20544;-52
2021/12/10 03:50:59;;;;;;;0.40;0.40;;;;;;;10.17;100.00;94341.28;5093124;28;20900;-52
2021/12/10 03:53:27;;;;;;;0.30;0.30;;;;;;;10.21;100.00;94336.22;5092651;28;20440;-52
2021/12/10 03:56:02;;;;;;;1.07;1.07;;;;;;;9.83;100.00;94305.56;5093000;28;20456;-52
2021/12/10 03:58:30;;;;;;;0.30;0.20;;;;;;;10.31;100.00;94356.44;5093241;28;20447;-52
2021/12/10 04:00:59;;;;;;;0.40;0.40;;;;;;;10.39;100.00;94350.47;5092739;28;20815;-52
2021/12/10 04:03:30;;;;;;;0.40;0.30;;;;;;;10.30;100.00;94346.91;5092785;28;20981;-51
2021/12/10 04:05:58;;;;;;;0.30;0.20;;;;;;;10.23;100.00;94341.22;5092716;28;20883;-52
2021/12/10 04:08:27;;;;;;;0.30;0.30;;;;;;;10.32;100.00;94356.16;5092473;28;20533;-52
2021/12/10 04:10:56;;;;;;;0.30;0.20;;;;;;;9.99;100.00;94367.78;5092261;28;20487;-52
2021/12/10 04:13:26;;;;;;;0.43;0.40;;;;;;;10.06;100.00;94358.41;5092409;28;20424;-52
2021/12/10 04:15:55;;;;;;;2.30;1.50;;;;;;;9.75;100.00;94346.69;5091925;28;20941;-52
2021/12/10 04:18:24;;;;;;;0.40;0.30;;;;;;;10.00;100.00;94345.53;5092688;28;20962;-51
2021/12/10 04:20:53;;;;;;;0.70;0.70;;;;;;;10.25;100.00;94353.09;5092231;28;20460;-51
2021/12/10 04:23:24;;;;;;;0.63;0.63;;;;;;;10.34;100.00;94367.25;5092569;28;21069;-52
2021/12/10 04:25:52;;;;;;;1.17;1.17;;;;;;;10.52;100.00;94377.00;5092902;28;20436;-51
2021/12/10 04:28:22;;;;;;;1.63;0.67;;;;;;;10.46;100.00;94361.47;5092951;28;20551;-52
2021/12/10 04:30:53;;;;;;;1.27;1.17;;;;;;;9.95;100.00;94390.59;5092920;28;20468;-51
2021/12/10 04:33:25;;;;;;;0.33;0.30;;;;;;;9.94;100.00;94394.34;5093377;28;20428;-51
2021/12/10 04:35:58;;;;;;;11.97;0.83;;;;;;;9.41;100.00;94351.44;5092745;28;20523;-52
2021/12/10 04:38:29;;;;;;;0.40;0.20;;;;;;;10.03;100.00;94416.41;5092823;28;20995;-52
2021/12/10 04:41:01;;;;;;;0.50;0.40;;;;;;;10.03;100.00;94411.91;5092052;28;20479;-51
2021/12/10 04:43:31;;;;;;;0.30;0.20;;;;;;;10.12;100.00;94410.22;5092222;28;20880;-51
2021/12/10 04:46:01;;;;;;;0.63;0.63;;;;;;;10.22;100.00;94408.50;5092770;28;20497;-51
2021/12/10 04:48:31;;;;;;;0.70;0.70;;;;;;;10.29;100.00;94406.28;5092477;28;20479;-51
2021/12/10 04:50:59;;;;;;;0.77;0.70;;;;;;;10.39;100.00;94398.16;5092529;28;20844;-51
2021/12/10 04:53:29;;;;;;;0.30;0.20;;;;;;;10.28;100.00;94386.16;5092270;28;20425;-51
2021/12/10 04:55:57;;;;;;;0.70;0.70;;;;;;;10.11;100.00;94403.34;5092083;28;20432;-51
2021/12/10 04:58:26;;;;;;;0.70;0.70;;;;;;;10.27;100.00;94389.88;5092462;28;20523;-51
2021/12/10 05:00:54;;;;;;;0.60;0.60;;;;;;;10.48;100.00;94413.09;5092052;28;20507;-51
2021/12/10 05:03:24;;;;;;;0.97;0.97;;;;;;;10.43;100.00;94420.34;5092050;28;20502;-51
2021/12/10 05:05:59;;;;;;;0.40;0.40;;;;;;;10.51;100.00;94417.81;5091417;28;20429;-51
2021/12/10 05:08:28;;;;;;;2.10;1.43;;;;;;;10.10;100.00;94401.75;5092569;28;20553;-51
2021/12/10 05:10:56;;;;;;;4.37;3.00;;;;;;;8.66;100.00;94258.00;5091858;28;20971;-51
2021/12/10 05:13:25;;;;;;;9.57;2.50;;;;;;;9.38;100.00;94375.78;5092354;28;20508;-51
2021/12/10 05:15:57;;;;;;;1.90;1.70;;;;;;;9.74;100.00;94413.91;5092092;28;20477;-51
2021/12/10 05:18:31;;;;;;;1.47;1.47;;;;;;;10.07;100.00;94412.91;5091898;28;20887;-51
2021/12/10 05:21:00;;;;;;;2.40;2.30;;;;;;;9.88;100.00;94427.22;5092279;28;20478;-51
2021/12/10 05:23:28;;;;;;;1.17;1.07;;;;;;;9.91;100.00;94398.34;5091655;28;20428;-51
2021/12/10 05:25:57;;;;;;;2.10;1.10;;;;;;;10.03;100.00;94411.91;5091513;28;20436;-51
2021/12/10 05:28:25;;;;;;;2.47;2.10;;;;;;;9.98;100.00;94382.88;5091890;28;20551;-51
2021/12/10 05:30:56;;;;;;;14.93;2.40;;;;;;;10.23;100.00;94388.88;5092397;28;20470;-52
2021/12/10 05:33:28;;;;;;;1.63;1.53;;;;;;;10.19;100.00;94405.34;5091700;28;20424;-51
2021/12/10 05:35:59;;;;;;;0.50;0.50;;;;;;;10.24;100.00;94409.78;5091457;28;20803;-51
2021/12/10 05:38:28;;;;;;;1.23;1.17;;;;;;;10.24;100.00;94398.41;5091980;28;20448;-51
2021/12/10 05:40:58;;;;;;;1.50;1.47;;;;;;;9.94;100.00;94408.31;5091495;28;20847;-51
2021/12/10 05:43:26;;;;;;;1.93;1.93;;;;;;;9.79;100.00;94397.19;5091766;28;20497;-51
2021/12/10 05:45:55;;;;;;;1.63;1.60;;;;;;;9.68;100.00;94415.06;5091989;28;20481;-51
2021/12/10 05:48:24;;;;;;;0.77;0.77;;;;;;;9.87;100.00;94407.91;5091428;28;20511;-51
2021/12/10 05:50:55;;;;;;;1.20;1.20;;;;;;;10.16;100.00;94400.63;5091507;28;20432;-51
2021/12/10 05:53:23;;;;;;;0.70;0.70;;;;;;;10.29;100.00;94390.38;5091866;28;20452;-51
2021/12/10 05:55:52;;;;;;;0.50;0.40;;;;;;;10.27;100.00;94371.34;5092054;28;20535;-51
2021/12/10 05:58:21;;;;;;;0.30;0.30;;;;;;;9.54;100.00;94261.56;5091758;28;20437;-51
2021/12/10 06:00:53;;;;;;;0.40;0.30;;;;;;;10.48;100.00;94360.13;5092099;28;20845;-51
2021/12/10 06:03:23;;;;;;;0.50;0.50;;;;;;;10.49;100.00;94369.66;5091863;28;20772;-52
2021/12/10 06:05:51;;;;;;;0.30;0.20;;;;;;;10.13;100.00;94395.91;5092085;28;20512;-51
2021/12/10 06:08:23;;;;;;;7.73;1.50;;;;;;;9.74;100.00;94387.44;5091744;28;20511;-51
2021/12/10 06:10:55;;;;;;;10.03;3.10;;;;;;;10.07;100.00;94434.09;5091788;28;20924;-51
2021/12/10 06:13:23;;;;;;;0.90;0.90;;;;;;;10.34;100.00;94449.34;5091846;28;20459;-51
2021/12/10 06:15:52;;;;;;;0.43;0.40;;;;;;;10.14;100.00;94415.25;5091556;28;20464;-52
2021/12/10 06:18:20;;;;;;;0.87;0.87;;;;;;;10.17;100.00;94430.53;5091547;28;20501;-52
2021/12/10 06:20:51;;;;;;;0.40;0.40;;;;;;;9.94;100.00;94410.22;5091909;28;20507;-52
2021/12/10 06:23:22;;;;;;;1.90;1.90;;;;;;;9.73;100.00;94424.78;5093309;28;20486;-52
2021/12/10 06:25:50;;;;;;;0.67;0.67;;;;;;;9.89;100.00;94421.63;5095661;28;20511;-52
2021/12/10 06:28:19;;;;;;;7.47;2.40;;;;;;;9.98;100.00;94425.22;5095742;28;20791;-52
2021/12/10 06:30:51;;;;;;;0.40;0.30;;;;;;;10.10;100.00;94436.16;5095414;28;20966;-52
2021/12/10 06:33:22;;;;;;;0.63;0.50;;;;;;;9.51;100.00;94373.22;5095799;28;20860;-50
2021/12/10 06:35:52;;;;;;;0.87;0.87;;;;;;;10.02;100.00;94450.03;5095313;28;20936;-52
2021/12/10 06:38:23;;;;;;;3.37;1.03;;;;;;;10.09;100.00;94463.69;5095341;28;20446;-52
2021/12/10 06:40:53;;;;;;;0.60;0.60;;;;;;;10.27;100.00;94464.78;5095215;28;21004;-51
2021/12/10 06:43:23;;;;;;;1.63;1.63;;;;;;;10.16;100.00;94448.28;5094888;28;20467;-51
2021/12/10 06:45:52;;;;;;;1.53;1.43;;;;;;;10.46;100.00;94462.94;5094900;28;20497;-51
2021/12/10 06:48:23;;;;;;;2.83;1.20;;;;;;;10.38;100.00;94423.06;5094899;28;20412;-51
2021/12/10 06:50:55;;;;;;;1.20;1.20;;;;;;;10.08;100.00;94388.03;5094990;28;20432;-51
2021/12/10 06:53:27;;;;;;;1.27;1.17;;;;;;;10.30;100.00;94460.78;5094795;28;20464;-50
2021/12/10 06:55:56;;;;;;;1.73;1.63;;;;;;;10.29;100.00;94462.69;5095294;28;20462;-51
2021/12/10 06:58:24;;;;;;;5.40;3.40;;;;;;;10.21;100.00;94492.44;5095207;28;20444;-50
2021/12/10 07:00:55;;;;;;;1.00;1.00;;;;;;;10.06;100.00;94493.41;5094933;28;20515;-51
2021/12/10 07:03:27;;;;;;;1.07;1.07;;;;;;;10.24;100.00;94469.91;5095095;28;20814;-51
2021/12/10 07:05:59;;;;;;;1.60;1.50;;;;;;;9.87;100.00;94404.47;5094721;28;20420;-51
2021/12/10 07:08:32;;;;;;;6.07;3.13;;;;;;;10.32;100.00;94446.22;5094616;28;20972;-51
2021/12/10 07:11:01;;;;;;;2.23;2.07;;;;;;;10.22;100.00;94464.88;5094968;28;20452;-51
2021/12/10 07:13:34;;;;;;;1.37;1.00;;;;;;;10.58;100.00;94473.88;5094481;28;20519;-51
2021/12/10 07:16:04;;;;;;;0.80;0.80;;;;;;;10.84;100.00;94468.94;5094675;28;20413;-51
2021/12/10 07:18:34;;;;;;;0.73;0.40;;;;;;;11.03;100.00;94459.06;5094456;28;20440;-51
2021/12/10 07:21:03;;;;;;;0.87;0.87;;;;;;;11.12;100.00;94449.38;5094703;28;20428;-51
2021/12/10 07:23:33;;;;;;;1.03;1.03;;;;;;;11.15;100.00;94427.56;5094479;28;20514;-51
2021/12/10 07:26:01;;;;;;;2.23;1.20;;;;;;;11.35;100.00;94415.78;5093810;28;20443;-51
2021/12/10 07:28:30;;;;;;;3.10;0.90;;;;;;;11.65;100.00;94412.50;5093885;28;20512;-51
2021/12/10 07:30:58;;;;;;;2.67;1.73;;;;;;;12.42;100.00;94434.44;5093800;28;20559;-52
2021/12/10 07:33:27;;;;;;;3.60;0.80;;;;;;;12.53;100.00;94437.66;5093687;28;20516;-51
2021/12/10 07:35:55;;;;;;;0.70;0.70;;;;;;;12.84;100.00;94416.41;5094123;28;20485;-51
2021/12/10 07:38:24;;;;;;;5.07;1.07;;;;;;;12.66;100.00;94408.34;5093848;28;20507;-51
2021/12/10 07:40:54;;;;;;;0.60;0.60;;;;;;;12.10;100.00;94413.41;5093689;28;20575;-51
2021/12/10 07:43:23;;;;;;;0.70;0.70;;;;;;;12.24;100.00;94411.50;5094118;28;20799;-51
2021/12/10 07:45:54;;;;;;;0.90;0.73;;;;;;;12.22;100.00;94396.97;5093696;28;20855;-51
2021/12/10 07:48:28;;;;;;;0.40;0.30;;;;;;;12.48;100.00;94411.97;5093711;28;20519;-51
2021/12/10 07:50:59;;;;;;;0.50;0.40;;;;;;;12.59;100.00;94412.53;5093421;28;20459;-51
2021/12/10 07:53:31;;;;;;;0.53;0.40;;;;;;;12.45;100.00;94407.25;5093791;28;20494;-51
2021/12/10 07:56:03;;;;;;;1.60;1.50;;;;;;;12.07;100.00;94414.78;5093837;28;20860;-51
2021/12/10 07:58:32;;;;;;;1.67;0.50;;;;;;;12.19;100.00;94414.28;5093258;28;20460;-51
2021/12/10 08:01:06;;;;;;;2.00;1.90;;;;;;;11.63;100.00;94369.56;5093147;28;21215;-51
2021/12/10 08:03:35;;;;;;;2.47;1.57;;;;;;;12.00;100.00;94395.03;5093515;28;20425;-51
2021/12/10 08:06:05;;;;;;;3.07;1.03;;;;;;;11.48;100.00;94436.97;5093533;28;20478;-51
2021/12/10 08:08:34;;;;;;;0.80;0.80;;;;;;;11.53;100.00;94438.78;5093547;28;20425;-51
2021/12/10 08:11:04;;;;;;;1.07;0.90;;;;;;;11.69;100.00;94441.94;5093847;28;20517;-52
2021/12/10 08:13:33;;;;;;;2.60;0.53;;;;;;;11.92;100.00;94435.56;5093791;28;20437;-52
2021/12/10 08:16:02;;;;;;;0.33;0.30;;;;;;;11.99;100.00;94431.44;5093487;28;20528;-50
2021/12/10 08:18:31;;;;;;;0.90;0.40;;;;;;;12.14;100.00;94425.03;5092932;28;20432;-50
2021/12/10 08:21:00;;;;;;;0.60;0.60;;;;;;;11.88;100.00;94427.44;5093013;28;20420;-51
2021/12/10 08:23:39;;;;;;;0.87;0.87;;;;;;;12.15;100.00;94415.94;5092325;28;20847;-51
2021/12/10 08:26:10;;;;;;;1.70;1.47;;;;;;;11.74;100.00;94408.09;5092902;28;20462;-51
2021/12/10 08:28:39;;;;;;;8.43;1.47;;;;;;;12.00;100.00;94410.97;5093097;28;20485;-50
2021/12/10 08:31:08;;;;;;;0.60;0.60;;;;;;;12.01;100.00;94409.91;5092860;28;20472;-51
2021/12/10 08:33:36;;;;;;;0.60;0.60;;;;;;;11.43;100.00;94445.03;5093097;28;20432;-51
2021/12/10 08:36:08;;;;;;;0.60;0.60;;;;;;;11.33;100.00;94442.56;5093369;28;20503;-51
2021/12/10 08:38:37;;;;;;;1.20;1.10;;;;;;;11.48;100.00;94421.06;5092849;28;20482;-52
2021/12/10 08:41:13;;;;;;;1.17;1.17;;;;;;;11.53;100.00;94406.91;5092830;28;20563;-52
2021/12/10 08:43:42;;;;;;;0.80;0.80;;;;;;;11.92;100.00;94427.63;5092837;28;20467;-50
2021/12/10 08:46:12;;;;;;;1.13;1.07;;;;;;;12.02;100.00;94430.84;5092201;28;20448;-50
2021/12/10 08:48:41;;;;;;;1.43;1.40;;;;;;;11.25;100.00;94363.72;5091848;28;20924;-50
2021/12/10 08:51:15;;;;;;;6.50;1.83;;;;;;;11.63;100.00;94446.53;5092661;28;20474;-50
2021/12/10 08:53:44;;;;;;;1.30;1.20;;;;;;;11.71;100.00;94451.19;5092658;28;20446;-52
2021/12/10 08:56:14;;;;;;;0.83;0.83;;;;;;;12.07;100.00;94441.34;5092632;28;20461;-51
2021/12/10 08:58:43;;;;;;;1.20;1.20;;;;;;;12.20;100.00;94447.72;5091995;28;20520;-51
2021/12/10 09:01:15;;;;;;;1.13;1.00;;;;;;;11.93;100.00;94439.81;5092048;28;20805;-51
2021/12/10 09:03:45;;;;;;;1.77;1.67;;;;;;;11.99;100.00;94441.28;5092538;28;20432;-51
2021/12/10 09:06:14;;;;;;;1.00;0.90;;;;;;;11.79;100.00;94365.50;5092563;28;20843;-51
2021/12/10 09:08:43;;;;;;;1.07;1.03;;;;;;;12.20;100.00;94412.38;5092758;28;20464;-52
2021/12/10 09:11:15;;;;;;;2.13;2.00;;;;;;;12.29;100.00;94414.03;5092671;28;20991;-51
2021/12/10 09:13:54;;;;;;;3.13;2.93;;;;;;;11.88;100.00;94363.72;5092285;28;20517;-51
2021/12/10 09:16:27;;;;;;;1.13;1.13;;;;;;;12.19;100.00;94405.53;5092077;28;20463;-51
2021/12/10 09:19:01;;;;;;;1.60;1.60;;;;;;;12.27;100.00;94394.19;5092607;28;20906;-51
2021/12/10 09:21:31;;;;;;;7.77;2.33;;;;;;;11.81;100.00;94386.47;5092179;28;20436;-51
2021/12/10 09:24:04;;;;;;;0.60;0.60;;;;;;;11.79;100.00;94384.09;5092331;28;20432;-51
2021/12/10 09:26:37;;;;;;;2.30;2.17;;;;;;;11.84;100.00;94351.34;5092578;28;20432;-51
2021/12/10 09:29:08;;;;;;;1.07;1.07;;;;;;;12.08;100.00;94389.81;5092415;28;20467;-51
2021/12/10 09:31:39;;;;;;;2.00;1.00;;;;;;;11.03;100.00;94260.19;5092063;28;20476;-51
2021/12/10 09:34:08;;;;;;;1.53;1.43;;;;;;;11.53;100.00;94393.66;5092239;28;20795;-51
2021/12/10 09:36:36;;;;;;;1.70;1.60;;;;;;;11.69;100.00;94372.94;5092129;28;20420;-51
2021/12/10 09:39:05;;;;;;;1.60;1.20;;;;;;;11.92;100.00;94370.00;5091919;28;20471;-51
2021/12/10 09:41:36;;;;;;;1.00;1.00;;;;;;;11.01;100.00;94198.75;5092073;28;20472;-51
2021/12/10 09:44:07;;;;;;;7.93;1.60;;;;;;;12.23;100.00;94366.63;5092164;28;20511;-51
2021/12/10 09:46:36;;;;;;;1.90;1.80;;;;;;;12.15;100.00;94373.44;5091482;28;20974;-51
2021/12/10 09:49:05;;;;;;;3.33;1.70;;;;;;;12.17;100.00;94351.91;5092089;28;20820;-51
2021/12/10 09:51:38;;;;;;;1.27;0.67;;;;;;;12.20;100.00;94325.50;5092065;28;20919;-51
2021/12/10 09:54:11;;;;;;;1.50;0.40;;;;;;;12.59;100.00;94360.16;5091659;28;20464;-51
2021/12/10 09:56:48;;;;;;;1.23;1.20;;;;;;;12.64;100.00;94352.06;5092578;28;20829;-52
2021/12/10 09:59:18;;;;;;;1.80;0.50;;;;;;;12.93;100.00;94361.41;5096123;28;20908;-51
2021/12/10 10:01:47;;;;;;;0.40;0.40;;;;;;;13.23;100.00;94347.31;5096301;28;20870;-51
2021/12/10 10:04:18;;;;;;;1.90;1.90;;;;;;;13.20;100.00;94345.28;5096107;28;20503;-51
2021/12/10 10:06:51;;;;;;;0.67;0.67;;;;;;;13.54;100.00;94353.31;5095946;28;20424;-51
2021/12/10 10:09:21;;;;;;;21.13;1.70;;;;;;;13.82;100.00;94343.97;5095699;28;20525;-51
2021/12/10 10:11:55;;;;;;;3.87;1.50;;;;;;;13.63;100.00;94350.69;5095771;28;20474;-52
2021/12/10 10:14:24;;;;;;;5.03;4.53;;;;;;;13.60;100.00;94348.66;5095734;28;20454;-52
2021/12/10 10:16:54;;;;;;;0.50;0.40;;;;;;;13.27;100.00;94341.06;5095636;28;20507;-50
2021/12/10 10:19:23;;;;;;;0.40;0.30;;;;;;;13.34;100.00;94336.06;5095471;28;20431;-51
2021/12/10 10:21:54;;;;;;;1.47;1.13;;;;;;;13.21;100.00;94336.97;5095752;28;20459;-51
2021/12/10 10:24:27;;;;;;;3.17;1.87;;;;;;;13.27;100.00;94325.09;5095328;28;20448;-51
2021/12/10 10:27:00;;;;;;;1.43;1.43;;;;;;;12.57;100.00;94303.84;5095538;28;20428;-51
2021/12/10 10:29:33;;;;;;;0.37;0.30;;;;;;;12.40;100.00;94306.41;5095528;28;20943;-51
2021/12/10 10:32:09;;;;;;;0.43;0.40;;;;;;;12.05;100.00;94281.53;5095237;28;20508;-51
2021/12/10 10:34:41;;;;;;;0.37;0.30;;;;;;;12.02;100.00;94305.22;5095370;28;20467;-52
2021/12/10 10:37:10;;;;;;;0.30;0.30;;;;;;;12.20;100.00;94309.56;5095127;28;20474;-51
2021/12/10 10:39:41;;;;;;;0.30;0.30;;;;;;;11.64;100.00;94261.53;5095117;28;20455;-52
2021/12/10 10:42:16;;;;;;;0.30;0.20;;;;;;;11.74;100.00;94290.53;5094937;28;20514;-52
2021/12/10 10:44:58;;;;;;;0.40;0.40;;;;;;;11.82;100.00;94287.13;5095000;28;20447;-51
2021/12/10 10:47:27;;;;;;;0.40;0.40;;;;;;;11.74;100.00;94301.16;5095310;28;20486;-51
2021/12/10 10:49:59;;;;;;;0.37;0.37;;;;;;;11.96;100.00;94301.94;5095271;28;20849;-52
2021/12/10 10:52:30;;;;;;;0.30;0.20;;;;;;;12.24;100.00;94296.50;5095288;28;20584;-52
2021/12/10 10:55:01;;;;;;;0.50;0.40;;;;;;;12.15;100.00;94301.72;5094448;28;21005;-51
2021/12/10 10:57:33;;;;;;;0.73;0.73;;;;;;;12.59;100.00;94306.22;5092894;28;20481;-51
2021/12/10 11:00:15;;;;;;;0.30;0.20;;;;;;;12.56;100.00;94298.84;5093067;28;20524;-51
2021/12/10 11:02:52;;;;;;;0.40;0.30;;;;;;;12.79;100.00;94302.22;5094008;28;20767;-53
2021/12/10 11:05:23;;;;;;;0.83;0.70;;;;;;;12.79;100.00;94286.25;5094125;28;20427;-52
2021/12/10 11:07:53;;;;;;;0.40;0.40;;;;;;;12.62;100.00;94294.97;5093592;28;20416;-51
2021/12/10 11:10:30;;;;;;;0.30;0.30;;;;;;;12.64;100.00;94304.22;5093508;28;20558;-52
2021/12/10 11:16:05;;;;;;;0.30;0.20;;;;;;;12.22;100.00;94280.84;5130004;27;20544;-51
2021/12/10 11:18:48;;;;;;;0.30;0.20;;;;;;;12.29;100.00;94305.13;5129319;27;20434;-52
2021/12/10 11:21:33;;;;;;;0.30;0.20;;;;;;;12.41;100.00;94310.66;5129903;27;20926;-52
2021/12/10 11:24:10;;;;;;;0.30;0.20;;;;;;;12.43;100.00;94295.19;5130064;27;20825;-52
2021/12/10 11:26:48;;;;;;;0.40;0.30;;;;;;;12.48;100.00;94297.72;5130190;27;20838;-52
2021/12/10 11:29:37;;;;;;;0.30;0.20;;;;;;;12.30;100.00;94288.06;5129769;27;20499;-52
2021/12/10 11:32:10;;;;;;;0.40;0.30;;;;;;;12.56;100.00;94288.22;5129743;27;20514;-52
2021/12/10 11:34:55;;;;;;;0.50;0.43;;;;;;;12.29;100.00;94286.53;5129874;27;20509;-52
2021/12/10 11:37:57;;;;;;;0.40;0.40;;;;;;;12.69;100.00;94269.50;5129620;27;20463;-52
2021/12/10 11:40:40;;;;;;;0.40;0.30;;;;;;;12.64;100.00;94258.22;5129494;27;20494;-52
2021/12/10 11:43:32;;;;;;;0.37;0.23;;;;;;;12.65;100.00;94246.50;5129552;27;20505;-52
2021/12/10 11:46:27;;;;;;;0.37;0.27;;;;;;;12.78;100.00;94269.53;5129689;27;20443;-52
2021/12/10 11:49:06;;;;;;;0.30;0.20;;;;;;;12.53;100.00;94270.22;5129719;27;20502;-52
2021/12/10 11:51:38;;;;;;;0.30;0.20;;;;;;;12.61;100.00;94256.97;5129723;27;20498;-52
2021/12/10 11:54:16;;;;;;;0.47;0.30;;;;;;;12.75;100.00;94240.88;5129586;27;20488;-52
2021/12/10 11:56:49;;;;;;;0.40;0.30;;;;;;;12.44;100.00;94251.59;5129445;27;20525;-52